sensor_id;sensor_type;location;lat;lon;timestamp;pressure;altitude;pressure_sealevel;temperature;humidity
73981;BME280;62348;51.412;5.436;2023-06-22T00:01:52;101702.09;;;19.80;68.35
73981;BME280;62348;51.412;5.436;2023-06-22T00:04:17;101710.94;;;19.77;68.25
73981;BME280;62348;51.412;5.436;2023-06-22T00:06:43;101715.59;;;19.76;67.86
73981;BME280;62348;51.412;5.436;2023-06-22T00:09:08;101722.72;;;19.77;68.38
73981;BME280;62348;51.412;5.436;2023-06-22T00:11:35;101721.59;;;19.78;68.75
73981;BME280;62348;51.412;5.436;2023-06-22T00:14:01;101718.97;;;19.73;69.32
73981;BME280;62348;51.412;5.436;2023-06-22T00:16:26;101716.06;;;19.64;69.14
73981;BME280;62348;51.412;5.436;2023-06-22T00:18:52;101718.00;;;19.64;69.12
73981;BME280;62348;51.412;5.436;2023-06-22T00:21:17;101712.72;;;19.67;68.86
73981;BME280;62348;51.412;5.436;2023-06-22T00:23:45;101712.22;;;19.65;69.20
73981;BME280;62348;51.412;5.436;2023-06-22T00:26:10;101706.00;;;19.60;68.54
73981;BME280;62348;51.412;5.436;2023-06-22T00:28:36;101715.34;;;19.59;69.40
73981;BME280;62348;51.412;5.436;2023-06-22T00:31:02;101712.59;;;19.59;69.92
73981;BME280;62348;51.412;5.436;2023-06-22T00:33:27;101705.47;;;19.58;69.55
73981;BME280;62348;51.412;5.436;2023-06-22T00:35:53;101706.59;;;19.57;69.55
73981;BME280;62348;51.412;5.436;2023-06-22T00:38:19;101706.59;;;19.57;69.03
73981;BME280;62348;51.412;5.436;2023-06-22T00:40:45;101702.72;;;19.58;69.27
73981;BME280;62348;51.412;5.436;2023-06-22T00:43:10;101694.59;;;19.53;69.89
73981;BME280;62348;51.412;5.436;2023-06-22T00:45:36;101696.13;;;19.59;69.04
73981;BME280;62348;51.412;5.436;2023-06-22T00:48:02;101699.09;;;19.62;69.98
73981;BME280;62348;51.412;5.436;2023-06-22T00:50:32;101691.16;;;19.61;69.38
73981;BME280;62348;51.412;5.436;2023-06-22T00:53:00;101702.94;;;19.61;70.49
73981;BME280;62348;51.412;5.436;2023-06-22T00:55:29;101698.28;;;19.62;69.88
73981;BME280;62348;51.412;5.436;2023-06-22T00:57:54;101691.16;;;19.61;70.10
73981;BME280;62348;51.412;5.436;2023-06-22T01:00:21;101696.66;;;19.61;70.41
73981;BME280;62348;51.412;5.436;2023-06-22T01:02:47;101697.78;;;19.60;70.32
73981;BME280;62348;51.412;5.436;2023-06-22T01:05:17;101695.63;;;19.57;70.88
73981;BME280;62348;51.412;5.436;2023-06-22T01:08:06;101698.81;;;19.64;70.47
73981;BME280;62348;51.412;5.436;2023-06-22T01:16:26;101694.13;;;19.64;69.94
73981;BME280;62348;51.412;5.436;2023-06-22T01:18:55;101694.94;;;19.65;70.56
73981;BME280;62348;51.412;5.436;2023-06-22T01:21:22;101691.38;;;19.64;70.03
73981;BME280;62348;51.412;5.436;2023-06-22T01:29:30;101700.81;;;19.58;70.72
73981;BME280;62348;51.412;5.436;2023-06-22T01:31:59;101707.09;;;19.59;70.76
73981;BME280;62348;51.412;5.436;2023-06-22T01:34:26;101690.56;;;19.64;70.22
73981;BME280;62348;51.412;5.436;2023-06-22T01:36:52;101689.84;;;19.58;70.81
73981;BME280;62348;51.412;5.436;2023-06-22T01:39:19;101690.94;;;19.57;70.52
73981;BME280;62348;51.412;5.436;2023-06-22T01:41:47;101683.75;;;19.61;70.02
73981;BME280;62348;51.412;5.436;2023-06-22T01:44:13;101688.19;;;19.57;70.10
73981;BME280;62348;51.412;5.436;2023-06-22T01:46:39;101694.41;;;19.63;70.72
73981;BME280;62348;51.412;5.436;2023-06-22T01:49:05;101683.75;;;19.61;70.46
73981;BME280;62348;51.412;5.436;2023-06-22T01:51:31;101681.41;;;19.55;71.43
73981;BME280;62348;51.412;5.436;2023-06-22T01:53:57;101679.47;;;19.55;71.27
73981;BME280;62348;51.412;5.436;2023-06-22T01:56:22;101691.06;;;19.52;72.06
73981;BME280;62348;51.412;5.436;2023-06-22T01:58:57;101692.88;;;19.57;71.78
73981;BME280;62348;51.412;5.436;2023-06-22T02:01:27;101685.03;;;19.50;72.54
73981;BME280;62348;51.412;5.436;2023-06-22T02:04:10;101682.28;;;19.50;71.43
73981;BME280;62348;51.412;5.436;2023-06-22T02:06:38;101680.16;;;19.47;71.46
73981;BME280;62348;51.412;5.436;2023-06-22T02:09:15;101674.97;;;19.45;71.49
73981;BME280;62348;51.412;5.436;2023-06-22T02:11:44;101669.78;;;19.44;71.86
73981;BME280;62348;51.412;5.436;2023-06-22T02:14:12;101671.00;;;19.38;71.95
73981;BME280;62348;51.412;5.436;2023-06-22T02:16:38;101673.66;;;19.43;71.44
73981;BME280;62348;51.412;5.436;2023-06-22T02:19:04;101668.97;;;19.43;71.95
73981;BME280;62348;51.412;5.436;2023-06-22T02:21:32;101680.25;;;19.42;71.97
73981;BME280;62348;51.412;5.436;2023-06-22T02:23:58;101672.03;;;19.42;72.19
73981;BME280;62348;51.412;5.436;2023-06-22T02:26:24;101664.72;;;19.37;71.99
73981;BME280;62348;51.412;5.436;2023-06-22T02:28:50;101668.25;;;19.38;71.87
73981;BME280;62348;51.412;5.436;2023-06-22T02:31:15;101668.63;;;19.31;72.18
73981;BME280;62348;51.412;5.436;2023-06-22T02:33:41;101658.72;;;19.35;71.74
73981;BME280;62348;51.412;5.436;2023-06-22T02:36:06;101662.03;;;19.32;72.15
73981;BME280;62348;51.412;5.436;2023-06-22T02:38:34;101655.53;;;19.28;72.33
73981;BME280;62348;51.412;5.436;2023-06-22T02:41:01;101656.56;;;19.32;72.33
73981;BME280;62348;51.412;5.436;2023-06-22T02:43:27;101654.91;;;19.31;72.06
73981;BME280;62348;51.412;5.436;2023-06-22T02:45:52;101650.28;;;19.31;72.65
73981;BME280;62348;51.412;5.436;2023-06-22T02:48:18;101653.81;;;19.32;72.74
73981;BME280;62348;51.412;5.436;2023-06-22T02:50:43;101650.06;;;19.28;73.57
73981;BME280;62348;51.412;5.436;2023-06-22T02:53:09;101652.50;;;19.29;73.56
73981;BME280;62348;51.412;5.436;2023-06-22T02:55:34;101661.03;;;19.28;73.24
73981;BME280;62348;51.412;5.436;2023-06-22T02:57:59;101654.19;;;19.25;74.55
73981;BME280;62348;51.412;5.436;2023-06-22T03:00:30;101648.19;;;19.23;74.85
73981;BME280;62348;51.412;5.436;2023-06-22T03:02:56;101645.16;;;19.25;74.79
73981;BME280;62348;51.412;5.436;2023-06-22T03:05:22;101634.19;;;19.25;75.90
73981;BME280;62348;51.412;5.436;2023-06-22T03:07:48;101639.38;;;19.26;75.41
73981;BME280;62348;51.412;5.436;2023-06-22T03:10:14;101640.81;;;19.24;76.16
73981;BME280;62348;51.412;5.436;2023-06-22T03:12:41;101630.06;;;19.27;74.47
73981;BME280;62348;51.412;5.436;2023-06-22T03:15:08;101630.72;;;19.19;75.87
73981;BME280;62348;51.412;5.436;2023-06-22T03:17:34;101621.84;;;19.27;74.66
73981;BME280;62348;51.412;5.436;2023-06-22T03:20:01;101617.75;;;19.25;77.05
73981;BME280;62348;51.412;5.436;2023-06-22T03:22:26;101608.19;;;19.22;76.32
73981;BME280;62348;51.412;5.436;2023-06-22T03:24:51;101607.69;;;19.20;76.16
73981;BME280;62348;51.412;5.436;2023-06-22T03:27:17;101602.72;;;19.22;75.93
73981;BME280;62348;51.412;5.436;2023-06-22T03:29:43;101612.03;;;19.21;75.52
73981;BME280;62348;51.412;5.436;2023-06-22T03:32:11;101608.00;;;19.19;76.12
73981;BME280;62348;51.412;5.436;2023-06-22T03:34:36;101608.28;;;19.17;75.62
73981;BME280;62348;51.412;5.436;2023-06-22T03:37:01;101600.34;;;19.16;74.53
73981;BME280;62348;51.412;5.436;2023-06-22T03:39:28;101595.72;;;19.16;74.29
73981;BME280;62348;51.412;5.436;2023-06-22T03:41:53;101598.75;;;19.15;74.37
73981;BME280;62348;51.412;5.436;2023-06-22T03:44:19;101598.22;;;19.13;74.56
73981;BME280;62348;51.412;5.436;2023-06-22T03:46:44;101601.28;;;19.11;75.48
73981;BME280;62348;51.412;5.436;2023-06-22T03:49:09;101610.59;;;19.10;75.64
73981;BME280;62348;51.412;5.436;2023-06-22T03:51:35;101601.06;;;19.07;75.19
73981;BME280;62348;51.412;5.436;2023-06-22T03:54:00;101600.25;;;19.07;74.62
73981;BME280;62348;51.412;5.436;2023-06-22T03:56:26;101601.97;;;19.03;74.29
73981;BME280;62348;51.412;5.436;2023-06-22T03:58:51;101612.00;;;19.07;75.67
73981;BME280;62348;51.412;5.436;2023-06-22T04:01:17;101614.53;;;19.04;76.04
73981;BME280;62348;51.412;5.436;2023-06-22T04:03:42;101610.91;;;19.08;75.87
73981;BME280;62348;51.412;5.436;2023-06-22T04:06:08;101616.19;;;19.05;75.03
73981;BME280;62348;51.412;5.436;2023-06-22T04:08:33;101611.50;;;19.05;74.52
73981;BME280;62348;51.412;5.436;2023-06-22T04:10:59;101609.56;;;19.06;75.48
73981;BME280;62348;51.412;5.436;2023-06-22T04:13:24;101603.28;;;19.05;74.08
73981;BME280;62348;51.412;5.436;2023-06-22T04:15:50;101605.94;;;19.10;74.69
73981;BME280;62348;51.412;5.436;2023-06-22T04:18:15;101592.03;;;19.07;75.79
73981;BME280;62348;51.412;5.436;2023-06-22T04:20:40;101593.84;;;19.11;75.53
73981;BME280;62348;51.412;5.436;2023-06-22T04:23:06;101601.28;;;19.11;74.53
73981;BME280;62348;51.412;5.436;2023-06-22T04:25:31;101605.94;;;19.10;74.34
73981;BME280;62348;51.412;5.436;2023-06-22T04:27:57;101598.22;;;19.13;73.90
73981;BME280;62348;51.412;5.436;2023-06-22T04:30:22;101609.09;;;19.18;74.47
73981;BME280;62348;51.412;5.436;2023-06-22T04:32:47;101602.00;;;19.17;74.25
73981;BME280;62348;51.412;5.436;2023-06-22T04:35:21;101609.09;;;19.18;74.29
73981;BME280;62348;51.412;5.436;2023-06-22T04:37:47;101596.00;;;19.15;75.22
73981;BME280;62348;51.412;5.436;2023-06-22T04:40:15;101603.59;;;19.18;74.04
73981;BME280;62348;51.412;5.436;2023-06-22T04:42:40;101603.94;;;19.16;74.43
73981;BME280;62348;51.412;5.436;2023-06-22T04:45:08;101608.88;;;19.14;74.71
73981;BME280;62348;51.412;5.436;2023-06-22T04:47:35;101614.28;;;19.19;74.34
73981;BME280;62348;51.412;5.436;2023-06-22T04:50:04;101611.75;;;19.23;74.77
73981;BME280;62348;51.412;5.436;2023-06-22T04:52:31;101601.28;;;19.25;74.79
73981;BME280;62348;51.412;5.436;2023-06-22T04:54:56;101605.69;;;19.26;74.45
73981;BME280;62348;51.412;5.436;2023-06-22T04:57:22;101604.84;;;19.25;74.79
73981;BME280;62348;51.412;5.436;2023-06-22T04:59:58;101601.00;;;19.26;74.98
73981;BME280;62348;51.412;5.436;2023-06-22T05:02:36;101609.94;;;19.32;74.42
73981;BME280;62348;51.412;5.436;2023-06-22T05:05:02;101611.88;;;19.31;75.49
73981;BME280;62348;51.412;5.436;2023-06-22T05:07:34;101603.03;;;19.35;75.24
73981;BME280;62348;51.412;5.436;2023-06-22T05:10:03;101604.59;;;19.41;75.35
73981;BME280;62348;51.412;5.436;2023-06-22T05:12:29;101603.47;;;19.42;75.16
73981;BME280;62348;51.412;5.436;2023-06-22T05:14:56;101591.41;;;19.43;75.71
73981;BME280;62348;51.412;5.436;2023-06-22T05:17:21;101600.34;;;19.48;75.36
73981;BME280;62348;51.412;5.436;2023-06-22T05:19:47;101594.34;;;19.46;76.07
73981;BME280;62348;51.412;5.436;2023-06-22T05:22:17;101601.66;;;19.51;76.04
73981;BME280;62348;51.412;5.436;2023-06-22T05:24:42;101597.28;;;19.50;75.55
73981;BME280;62348;51.412;5.436;2023-06-22T05:27:08;101611.69;;;19.56;75.50
73981;BME280;62348;51.412;5.436;2023-06-22T05:29:34;101609.78;;;19.56;76.19
73981;BME280;62348;51.412;5.436;2023-06-22T05:32:00;101609.16;;;19.59;75.61
73981;BME280;62348;51.412;5.436;2023-06-22T05:34:26;101607.56;;;19.58;75.75
73981;BME280;62348;51.412;5.436;2023-06-22T05:36:51;101608.38;;;19.59;76.38
73981;BME280;62348;51.412;5.436;2023-06-22T05:39:17;101600.84;;;19.64;75.29
73981;BME280;62348;51.412;5.436;2023-06-22T05:41:43;101604.09;;;19.66;75.09
73981;BME280;62348;51.412;5.436;2023-06-22T05:44:08;101602.66;;;19.69;74.72
73981;BME280;62348;51.412;5.436;2023-06-22T05:46:34;101604.09;;;19.66;75.47
73981;BME280;62348;51.412;5.436;2023-06-22T05:48:59;101605.13;;;19.70;75.22
73981;BME280;62348;51.412;5.436;2023-06-22T05:51:25;101608.41;;;19.73;75.18
73981;BME280;62348;51.412;5.436;2023-06-22T05:53:50;101611.13;;;19.73;75.44
73981;BME280;62348;51.412;5.436;2023-06-22T05:56:16;101606.50;;;19.73;75.35
73981;BME280;62348;51.412;5.436;2023-06-22T05:58:42;101614.59;;;19.78;75.17
73981;BME280;62348;51.412;5.436;2023-06-22T06:01:07;101611.75;;;19.83;75.11
73981;BME280;62348;51.412;5.436;2023-06-22T06:03:32;101608.41;;;19.86;75.37
73981;BME280;62348;51.412;5.436;2023-06-22T06:05:58;101609.13;;;19.92;75.32
73981;BME280;62348;51.412;5.436;2023-06-22T06:08:23;101608.19;;;19.97;74.87
73981;BME280;62348;51.412;5.436;2023-06-22T06:10:48;101603.84;;;19.96;75.09
73981;BME280;62348;51.412;5.436;2023-06-22T06:13:14;101603.91;;;20.04;75.27
73981;BME280;62348;51.412;5.436;2023-06-22T06:15:39;101598.94;;;20.06;74.40
73981;BME280;62348;51.412;5.436;2023-06-22T06:18:05;101606.38;;;20.06;75.19
73981;BME280;62348;51.412;5.436;2023-06-22T06:20:32;101604.13;;;20.08;75.63
73981;BME280;62348;51.412;5.436;2023-06-22T06:22:57;101607.38;;;20.10;76.18
73981;BME280;62348;51.412;5.436;2023-06-22T06:25:23;101610.41;;;20.08;76.52
73981;BME280;62348;51.412;5.436;2023-06-22T06:27:50;101607.38;;;20.10;75.58
73981;BME280;62348;51.412;5.436;2023-06-22T06:30:18;101606.28;;;20.11;75.89
73981;BME280;62348;51.412;5.436;2023-06-22T06:32:44;101604.31;;;20.12;75.88
73981;BME280;62348;51.412;5.436;2023-06-22T06:35:11;101603.03;;;20.09;76.59
73981;BME280;62348;51.412;5.436;2023-06-22T06:37:39;101593.66;;;20.10;76.02
73981;BME280;62348;51.412;5.436;2023-06-22T06:40:08;101601.88;;;20.10;75.73
73981;BME280;62348;51.412;5.436;2023-06-22T06:42:39;101616.53;;;20.05;75.70
73981;BME280;62348;51.412;5.436;2023-06-22T06:45:06;101607.97;;;20.07;76.83
73981;BME280;62348;51.412;5.436;2023-06-22T06:47:31;101605.56;;;20.05;76.41
73981;BME280;62348;51.412;5.436;2023-06-22T06:49:57;101605.22;;;20.07;77.13
73981;BME280;62348;51.412;5.436;2023-06-22T06:52:22;101618.66;;;20.08;76.67
73981;BME280;62348;51.412;5.436;2023-06-22T06:54:48;101618.16;;;20.06;76.22
73981;BME280;62348;51.412;5.436;2023-06-22T06:57:13;101620.69;;;20.03;77.98
73981;BME280;62348;51.412;5.436;2023-06-22T06:59:40;101625.88;;;20.04;78.60
73981;BME280;62348;51.412;5.436;2023-06-22T07:02:06;101631.06;;;20.06;78.05
73981;BME280;62348;51.412;5.436;2023-06-22T07:04:32;101625.06;;;20.04;79.18
73981;BME280;62348;51.412;5.436;2023-06-22T07:07:00;101632.19;;;20.05;78.95
73981;BME280;62348;51.412;5.436;2023-06-22T07:09:26;101622.84;;;20.06;79.92
73981;BME280;62348;51.412;5.436;2023-06-22T07:11:51;101622.84;;;20.06;79.99
73981;BME280;62348;51.412;5.436;2023-06-22T07:14:16;101614.91;;;20.04;79.78
73981;BME280;62348;51.412;5.436;2023-06-22T07:16:42;101612.16;;;20.04;80.03
73981;BME280;62348;51.412;5.436;2023-06-22T07:19:07;101602.81;;;20.05;80.83
73981;BME280;62348;51.412;5.436;2023-06-22T07:21:33;101595.59;;;20.09;78.38
73981;BME280;62348;51.412;5.436;2023-06-22T07:23:58;101591.50;;;20.07;79.40
73981;BME280;62348;51.412;5.436;2023-06-22T07:26:23;101581.56;;;20.11;80.58
73981;BME280;62348;51.412;5.436;2023-06-22T07:28:49;101577.06;;;20.15;79.20
73981;BME280;62348;51.412;5.436;2023-06-22T07:31:16;101572.09;;;20.17;78.19
73981;BME280;62348;51.412;5.436;2023-06-22T07:33:41;101572.59;;;20.19;77.36
73981;BME280;62348;51.412;5.436;2023-06-22T07:36:06;101566.16;;;20.24;78.05
73981;BME280;62348;51.412;5.436;2023-06-22T07:38:33;101562.00;;;20.26;77.53
73981;BME280;62348;51.412;5.436;2023-06-22T07:40:58;101565.75;;;20.31;76.07
73981;BME280;62348;51.412;5.436;2023-06-22T07:43:24;101552.06;;;20.39;76.85
73981;BME280;62348;51.412;5.436;2023-06-22T07:45:49;101543.41;;;20.46;76.55
73981;BME280;62348;51.412;5.436;2023-06-22T07:48:21;101539.63;;;20.56;74.93
73981;BME280;62348;51.412;5.436;2023-06-22T07:50:47;101535.66;;;20.62;74.30
73981;BME280;62348;51.412;5.436;2023-06-22T07:53:13;101524.22;;;20.69;73.71
73981;BME280;62348;51.412;5.436;2023-06-22T07:55:38;101517.16;;;20.76;73.68
73981;BME280;62348;51.412;5.436;2023-06-22T07:58:04;101514.59;;;20.80;73.63
73981;BME280;62348;51.412;5.436;2023-06-22T08:00:29;101499.13;;;20.84;73.37
73981;BME280;62348;51.412;5.436;2023-06-22T08:02:54;101494.59;;;20.88;73.19
73981;BME280;62348;51.412;5.436;2023-06-22T08:05:20;101493.66;;;20.93;72.28
73981;BME280;62348;51.412;5.436;2023-06-22T08:07:45;101483.16;;;20.95;72.23
73981;BME280;62348;51.412;5.436;2023-06-22T08:10:11;101479.59;;;20.94;72.04
73981;BME280;62348;51.412;5.436;2023-06-22T08:12:38;101481.72;;;20.97;72.50
73981;BME280;62348;51.412;5.436;2023-06-22T08:15:04;101481.72;;;20.97;72.24
73981;BME280;62348;51.412;5.436;2023-06-22T08:17:30;101482.88;;;20.96;72.77
73981;BME280;62348;51.412;5.436;2023-06-22T08:19:56;101478.47;;;20.95;71.95
73981;BME280;62348;51.412;5.436;2023-06-22T08:22:22;101483.66;;;20.97;72.30
73981;BME280;62348;51.412;5.436;2023-06-22T08:24:47;101472.66;;;20.97;72.13
73981;BME280;62348;51.412;5.436;2023-06-22T08:27:13;101482.22;;;20.99;72.31
73981;BME280;62348;51.412;5.436;2023-06-22T08:29:40;101492.22;;;20.95;72.03
73981;BME280;62348;51.412;5.436;2023-06-22T08:32:08;101493.84;;;20.96;71.98
73981;BME280;62348;51.412;5.436;2023-06-22T08:34:34;101488.66;;;20.95;71.64
73981;BME280;62348;51.412;5.436;2023-06-22T08:36:59;101483.16;;;20.95;72.26
73981;BME280;62348;51.412;5.436;2023-06-22T08:39:25;101482.34;;;20.94;71.70
73981;BME280;62348;51.412;5.436;2023-06-22T08:41:51;101485.09;;;20.94;71.11
73981;BME280;62348;51.412;5.436;2023-06-22T08:44:18;101484.28;;;20.94;71.08
73981;BME280;62348;51.412;5.436;2023-06-22T08:46:44;101476.84;;;20.94;71.40
73981;BME280;62348;51.412;5.436;2023-06-22T08:49:09;101482.03;;;20.96;70.91
73981;BME280;62348;51.412;5.436;2023-06-22T08:51:35;101470.22;;;20.95;71.34
73981;BME280;62348;51.412;5.436;2023-06-22T08:54:01;101474.28;;;20.98;71.31
73981;BME280;62348;51.412;5.436;2023-06-22T08:56:26;101471.22;;;20.99;71.14
73981;BME280;62348;51.412;5.436;2023-06-22T08:58:52;101472.03;;;21.00;71.92
73981;BME280;62348;51.412;5.436;2023-06-22T09:01:17;101468.34;;;21.04;71.91
73981;BME280;62348;51.412;5.436;2023-06-22T09:03:42;101467.38;;;21.09;71.01
73981;BME280;62348;51.412;5.436;2023-06-22T09:06:08;101465.59;;;21.13;71.21
73981;BME280;62348;51.412;5.436;2023-06-22T09:08:37;101463.53;;;21.19;70.67
73981;BME280;62348;51.412;5.436;2023-06-22T09:11:02;101462.28;;;21.25;71.20
73981;BME280;62348;51.412;5.436;2023-06-22T09:13:30;101457.94;;;21.33;71.26
73981;BME280;62348;51.412;5.436;2023-06-22T09:15:56;101451.63;;;21.41;72.15
73981;BME280;62348;51.412;5.436;2023-06-22T09:18:22;101454.78;;;21.48;71.29
73981;BME280;62348;51.412;5.436;2023-06-22T09:20:47;101450.91;;;21.58;70.95
73981;BME280;62348;51.412;5.436;2023-06-22T09:23:13;101452.69;;;21.62;70.01
73981;BME280;62348;51.412;5.436;2023-06-22T09:25:39;101454.00;;;21.65;69.55
73981;BME280;62348;51.412;5.436;2023-06-22T09:28:06;101456.44;;;21.67;69.33
73981;BME280;62348;51.412;5.436;2023-06-22T09:30:31;101453.34;;;21.68;70.00
73981;BME280;62348;51.412;5.436;2023-06-22T09:32:57;101442.31;;;21.68;70.06
73981;BME280;62348;51.412;5.436;2023-06-22T09:35:22;101447.03;;;21.68;68.52
73981;BME280;62348;51.412;5.436;2023-06-22T09:37:47;101452.03;;;21.66;69.31
73981;BME280;62348;51.412;5.436;2023-06-22T09:40:13;101449.59;;;21.64;67.86
73981;BME280;62348;51.412;5.436;2023-06-22T09:42:41;101445.25;;;21.63;67.76
73981;BME280;62348;51.412;5.436;2023-06-22T09:45:07;101448.63;;;21.60;69.00
73981;BME280;62348;51.412;5.436;2023-06-22T09:47:32;101447.84;;;21.59;68.12
73981;BME280;62348;51.412;5.436;2023-06-22T09:49:58;101440.69;;;21.58;68.05
73981;BME280;62348;51.412;5.436;2023-06-22T09:52:25;101439.72;;;21.54;68.88
73981;BME280;62348;51.412;5.436;2023-06-22T09:54:50;101436.16;;;21.54;68.60
73981;BME280;62348;51.412;5.436;2023-06-22T09:57:16;101432.94;;;21.52;69.05
73981;BME280;62348;51.412;5.436;2023-06-22T09:59:41;101442.00;;;21.52;69.19
73981;BME280;62348;51.412;5.436;2023-06-22T10:02:06;101441.50;;;21.50;70.07
73981;BME280;62348;51.412;5.436;2023-06-22T10:04:33;101439.88;;;21.49;70.20
73981;BME280;62348;51.412;5.436;2023-06-22T10:06:59;101439.06;;;21.49;69.46
73981;BME280;62348;51.412;5.436;2023-06-22T10:09:24;101442.97;;;21.48;69.44
73981;BME280;62348;51.412;5.436;2023-06-22T10:11:50;101443.28;;;21.46;69.42
73981;BME280;62348;51.412;5.436;2023-06-22T10:14:15;101443.28;;;21.46;69.33
73981;BME280;62348;51.412;5.436;2023-06-22T10:16:41;101444.06;;;21.47;68.51
73981;BME280;62348;51.412;5.436;2023-06-22T10:19:07;101444.06;;;21.47;69.01
73981;BME280;62348;51.412;5.436;2023-06-22T10:21:32;101452.31;;;21.47;69.89
73981;BME280;62348;51.412;5.436;2023-06-22T10:23:58;101451.53;;;21.46;70.94
73981;BME280;62348;51.412;5.436;2023-06-22T10:26:26;101448.88;;;21.41;72.33
73981;BME280;62348;51.412;5.436;2023-06-22T10:28:54;101463.59;;;21.36;72.21
73981;BME280;62348;51.412;5.436;2023-06-22T10:31:19;101463.13;;;21.34;71.69
73981;BME280;62348;51.412;5.436;2023-06-22T10:33:44;101465.88;;;21.34;71.64
73981;BME280;62348;51.412;5.436;2023-06-22T10:36:11;101476.69;;;21.31;73.61
73981;BME280;62348;51.412;5.436;2023-06-22T10:38:36;101481.19;;;21.26;76.21
73981;BME280;62348;51.412;5.436;2023-06-22T10:41:01;101489.13;;;21.28;75.40
73981;BME280;62348;51.412;5.436;2023-06-22T10:43:27;101486.53;;;21.23;77.46
73981;BME280;62348;51.412;5.436;2023-06-22T10:45:53;101483.44;;;21.16;79.99
73981;BME280;62348;51.412;5.436;2023-06-22T10:48:18;101482.28;;;21.17;82.56
73981;BME280;62348;51.412;5.436;2023-06-22T10:50:43;101488.44;;;21.14;84.47
73981;BME280;62348;51.412;5.436;2023-06-22T10:53:09;101489.53;;;21.04;84.44
73981;BME280;62348;51.412;5.436;2023-06-22T10:55:34;101483.97;;;20.95;85.48
73981;BME280;62348;51.412;5.436;2023-06-22T10:58:00;101480.56;;;20.90;87.21
73981;BME280;62348;51.412;5.436;2023-06-22T11:00:26;101480.97;;;20.83;87.06
73981;BME280;62348;51.412;5.436;2023-06-22T11:02:51;101482.25;;;20.77;86.85
73981;BME280;62348;51.412;5.436;2023-06-22T11:05:16;101478.31;;;20.69;88.31
73981;BME280;62348;51.412;5.436;2023-06-22T11:07:43;101490.88;;;20.61;88.57
73981;BME280;62348;51.412;5.436;2023-06-22T11:10:09;101502.31;;;20.55;88.60
73981;BME280;62348;51.412;5.436;2023-06-22T11:12:34;101498.03;;;20.48;91.16
73981;BME280;62348;51.412;5.436;2023-06-22T11:15:00;101506.22;;;20.40;91.08
73981;BME280;62348;51.412;5.436;2023-06-22T11:17:25;101491.50;;;20.36;93.20
73981;BME280;62348;51.412;5.436;2023-06-22T11:19:50;101493.66;;;20.25;92.36
73981;BME280;62348;51.412;5.436;2023-06-22T11:22:16;101497.03;;;20.22;92.97
73981;BME280;62348;51.412;5.436;2023-06-22T11:24:41;101494.72;;;20.15;92.58
73981;BME280;62348;51.412;5.436;2023-06-22T11:27:06;101499.00;;;20.07;92.06
73981;BME280;62348;51.412;5.436;2023-06-22T11:29:32;101508.66;;;20.05;93.32
73981;BME280;62348;51.412;5.436;2023-06-22T11:31:57;101486.63;;;19.96;94.71
73981;BME280;62348;51.412;5.436;2023-06-22T11:34:23;101475.47;;;19.93;93.73
73981;BME280;62348;51.412;5.436;2023-06-22T11:36:48;101468.66;;;19.90;94.28
73981;BME280;62348;51.412;5.436;2023-06-22T11:39:13;101452.63;;;19.83;94.94
73981;BME280;62348;51.412;5.436;2023-06-22T11:41:40;101463.09;;;19.81;95.35
73981;BME280;62348;51.412;5.436;2023-06-22T11:44:06;101442.88;;;19.77;95.68
73981;BME280;62348;51.412;5.436;2023-06-22T11:46:32;101452.03;;;19.73;96.09
73981;BME280;62348;51.412;5.436;2023-06-22T11:48:57;101444.91;;;19.72;96.67
73981;BME280;62348;51.412;5.436;2023-06-22T11:51:23;101446.00;;;19.70;97.32
73981;BME280;62348;51.412;5.436;2023-06-22T11:53:48;101435.66;;;19.67;97.75
73981;BME280;62348;51.412;5.436;2023-06-22T11:56:14;101436.28;;;19.64;98.55
73981;BME280;62348;51.412;5.436;2023-06-22T11:58:39;101426.59;;;19.67;98.47
73981;BME280;62348;51.412;5.436;2023-06-22T12:01:04;101421.75;;;19.64;98.51
73981;BME280;62348;51.412;5.436;2023-06-22T12:03:30;101420.81;;;19.68;98.50
73981;BME280;62348;51.412;5.436;2023-06-22T12:05:55;101424.50;;;19.64;98.18
73981;BME280;62348;51.412;5.436;2023-06-22T12:08:21;101426.41;;;19.63;97.36
73981;BME280;62348;51.412;5.436;2023-06-22T12:10:46;101428.63;;;19.61;97.96
73981;BME280;62348;51.412;5.436;2023-06-22T12:13:12;101418.81;;;19.60;97.58
73981;BME280;62348;51.412;5.436;2023-06-22T12:15:38;101403.59;;;19.54;97.94
73981;BME280;62348;51.412;5.436;2023-06-22T12:18:03;101396.47;;;19.53;97.12
73981;BME280;62348;51.412;5.436;2023-06-22T12:20:28;101408.38;;;19.48;98.01
73981;BME280;62348;51.412;5.436;2023-06-22T12:22:54;101399.31;;;19.48;98.19
73981;BME280;62348;51.412;5.436;2023-06-22T12:25:22;101396.56;;;19.48;97.93
73981;BME280;62348;51.412;5.436;2023-06-22T12:27:47;101394.66;;;19.48;97.23
73981;BME280;62348;51.412;5.436;2023-06-22T12:30:13;101399.09;;;19.44;98.45
73981;BME280;62348;51.412;5.436;2023-06-22T12:32:38;101394.75;;;19.43;98.28
73981;BME280;62348;51.412;5.436;2023-06-22T12:35:04;101393.13;;;19.42;98.66
73981;BME280;62348;51.412;5.436;2023-06-22T12:37:29;101395.38;;;19.40;99.53
73981;BME280;62348;51.412;5.436;2023-06-22T12:39:56;101391.53;;;19.41;100.00
73981;BME280;62348;51.412;5.436;2023-06-22T12:42:22;101393.75;;;19.39;100.00
73981;BME280;62348;51.412;5.436;2023-06-22T12:44:47;101379.41;;;19.42;99.52
73981;BME280;62348;51.412;5.436;2023-06-22T12:47:13;101381.06;;;19.43;100.00
73981;BME280;62348;51.412;5.436;2023-06-22T12:49:38;101361.97;;;19.38;98.70
73981;BME280;62348;51.412;5.436;2023-06-22T12:52:09;101372.63;;;19.40;98.85
73981;BME280;62348;51.412;5.436;2023-06-22T12:54:35;101370.09;;;19.43;100.00
73981;BME280;62348;51.412;5.436;2023-06-22T12:57:01;101372.13;;;19.38;98.98